首页
METAR-TAF:

METAR-TAF

机场 :

Vernal Regional Airport

Vernal, 犹他州, 美国

纬度: 40-26-39N, 经度: 109-30-42W, 海拔: 1607米

当前天气观测

该预报发布于1小时和7分钟前的19:53 UTC
风速6节,风向
温度 32°C
湿度 12%
气压 1014 hPa
能見度: 16.1公里
天空无云

METAR: KVEL 221953Z AUTO 35006KT 10SM CLR 32/M01 A2994 RMK AO2 SLP064 T03221011

时间: 15:00 (21:00 UTC)

预报

该预报发布于3小时和22分钟前的17:38 UTC
预报有效从22日的 18点(UTC)到 23日的 18点(UTC)
风速5节,风向南转南东
能見度: 10公里
散云层高于15000英尺
多云层高于20000英尺
从 22日的 2000点(UTC)
风速12节,风向南转西南,有时为25节阵风
能見度: 10公里
少量云层高于15000英尺
散云层高于20000英尺
从 23日的 0200点(UTC)
风速5节,风向西
能見度: 10公里
少量云层高于15000英尺
散云层高于20000英尺
从 23日的 1500点(UTC)
风速5节,风向
能見度: 10公里
少量云层高于20000英尺

TAF: KVEL 221738Z 2218/2318 16005KT P6SM SCT150 BKN200 FM222000 21012G25KT P6SM FEW150 SCT200 FM230200 26005KT P6SM FEW150 SCT200 FM231500 17005KT P6SM FEW200

超过4000个机场的气象观测和天气预报(METAR&TAF报告)。

可查询的气象台以黄色和红色小点在地图上表示。

将鼠标移到小点上方,可查看气象台名称。

然后点击查看天气观测和预报。

如需切换地图:点击带黑十字的绿色按钮放大地图;点击带横线的绿色按钮缩小地图;或者点击绿色箭头查看邻近地区的地图。


METAR-TAF: